createdAt,value
2023-01-15T00:01:02.483Z,99885.59
2023-01-15T00:03:32.821Z,99874.63
2023-01-15T00:06:03.636Z,99852.16
2023-01-15T00:08:31.636Z,99854.56
2023-01-15T00:10:59.602Z,99843.59
2023-01-15T00:13:29.477Z,99866.91
2023-01-15T00:16:04.654Z,99850.47
2023-01-15T00:18:34.315Z,99855.25
2023-01-15T00:21:02.932Z,99868.72
2023-01-15T00:23:48.885Z,99862.69
2023-01-15T00:26:35.893Z,99843.16
2023-01-15T00:29:04.103Z,99859.03
2023-01-15T00:31:33.391Z,99819.31
2023-01-15T00:34:03.044Z,99854.41
2023-01-15T00:36:33.042Z,99808.22
2023-01-15T00:39:01.435Z,99860.84
2023-01-15T00:41:29.319Z,99884.00
2023-01-15T00:43:57.811Z,99810.00
2023-01-15T00:46:25.877Z,99816.66
2023-01-15T00:48:53.849Z,99824.03
2023-01-15T00:51:23.292Z,99817.50
2023-01-15T00:53:51.205Z,99821.69
2023-01-15T00:56:19.190Z,99804.88
2023-01-15T00:58:47.925Z,99789.06
2023-01-15T01:01:16.062Z,99802.00
2023-01-15T01:03:48.939Z,99884.34
2023-01-15T01:06:17.505Z,99844.28
2023-01-15T01:08:47.044Z,99797.06
2023-01-15T01:11:17.124Z,99797.63
2023-01-15T01:13:46.710Z,99782.44
2023-01-15T01:16:32.151Z,99779.91
2023-01-15T01:19:01.868Z,99789.44
2023-01-15T01:21:30.109Z,99800.00
2023-01-15T01:24:01.251Z,99778.84
2023-01-15T01:26:29.813Z,99808.47
2023-01-15T01:28:59.033Z,99783.38
2023-01-15T01:31:27.309Z,99779.72
2023-01-15T01:33:57.830Z,99778.06
2023-01-15T01:36:29.587Z,99776.91
2023-01-15T01:38:57.582Z,99781.97
2023-01-15T01:41:27.772Z,99749.38
2023-01-15T01:44:01.150Z,99786.13
2023-01-15T01:46:32.036Z,99808.22
2023-01-15T01:49:04.167Z,99785.88
2023-01-15T01:51:37.246Z,99801.91
2023-01-15T01:54:05.761Z,99794.56
2023-01-15T01:56:37.510Z,99792.31
2023-01-15T01:59:08.000Z,99805.16
2023-01-15T02:01:36.652Z,99850.19
2023-01-15T02:04:07.799Z,99804.75
2023-01-15T02:06:36.339Z,99794.25
2023-01-15T02:09:04.717Z,99800.41
2023-01-15T02:11:35.756Z,99833.38
2023-01-15T02:14:10.225Z,99798.75
2023-01-15T02:16:44.754Z,99784.44
2023-01-15T02:19:30.508Z,99816.28
2023-01-15T02:22:05.765Z,99792.88
2023-01-15T02:24:45.136Z,99814.50
2023-01-15T02:27:17.802Z,99798.66
2023-01-15T02:29:54.829Z,99759.81
2023-01-15T02:32:31.675Z,99780.31
2023-01-15T02:35:06.110Z,99777.34
2023-01-15T02:37:37.692Z,99762.31
2023-01-15T02:40:08.740Z,99764.56
2023-01-15T02:42:38.617Z,99753.63
2023-01-15T02:45:08.891Z,99755.00
2023-01-15T02:47:41.499Z,99742.66
2023-01-15T02:50:15.468Z,99735.38
2023-01-15T02:52:46.797Z,99747.72
2023-01-15T02:55:19.059Z,99732.69
2023-01-15T02:57:53.144Z,99723.66
2023-01-15T03:00:24.831Z,99725.47
2023-01-15T03:02:57.621Z,99711.97
2023-01-15T03:05:31.682Z,99730.22
2023-01-15T03:08:02.152Z,99726.88
2023-01-15T03:10:40.364Z,99702.31
2023-01-15T03:13:17.139Z,99710.91
2023-01-15T03:16:10.163Z,99724.94
2023-01-15T03:18:45.324Z,99742.19
2023-01-15T03:21:18.762Z,99705.41
2023-01-15T03:23:51.230Z,99697.53
2023-01-15T03:26:19.199Z,99694.84
2023-01-15T03:28:49.976Z,99719.59
2023-01-15T03:31:22.663Z,99792.06
2023-01-15T03:33:51.753Z,99791.25
2023-01-15T03:36:20.329Z,99820.66
2023-01-15T03:38:50.911Z,99749.19
2023-01-15T03:41:26.001Z,99695.22
2023-01-15T03:44:03.545Z,99753.38
2023-01-15T03:46:51.834Z,99723.69
2023-01-15T03:49:28.306Z,99731.84
2023-01-15T03:52:03.564Z,99735.34
2023-01-15T03:54:44.545Z,99742.38
2023-01-15T03:57:16.441Z,99717.28
2023-01-15T03:59:52.553Z,99721.06
2023-01-15T04:02:22.958Z,99733.97
2023-01-15T04:04:53.335Z,99701.41
2023-01-15T04:07:22.163Z,99768.22
2023-01-15T04:09:50.461Z,99720.06
2023-01-15T04:12:18.545Z,99720.75
2023-01-15T04:14:47.895Z,99737.88
2023-01-15T04:17:15.837Z,99714.28
2023-01-15T04:19:44.330Z,99708.28
2023-01-15T04:22:12.953Z,99707.56
2023-01-15T04:24:40.881Z,99705.03
2023-01-15T04:27:08.908Z,99768.75
2023-01-15T04:29:36.752Z,99687.06
2023-01-15T04:32:06.588Z,99678.78
2023-01-15T04:34:35.939Z,99696.72
2023-01-15T04:37:03.962Z,99703.03
2023-01-15T04:39:32.095Z,99695.59
2023-01-15T04:42:25.645Z,99681.97
2023-01-15T04:44:53.681Z,99679.56
2023-01-15T04:47:23.083Z,99681.63
2023-01-15T04:49:51.346Z,99703.69
2023-01-15T04:52:20.116Z,99685.81
2023-01-15T04:54:48.395Z,99700.22
2023-01-15T04:57:16.356Z,99682.94
2023-01-15T04:59:44.709Z,99671.66
2023-01-15T05:02:15.114Z,99716.66
2023-01-15T05:04:44.932Z,99704.59
2023-01-15T05:07:13.065Z,99718.78
2023-01-15T05:09:41.075Z,99694.28
2023-01-15T05:12:10.048Z,99712.31
2023-01-15T05:14:38.175Z,99705.97
2023-01-15T05:17:06.779Z,99747.13
2023-01-15T05:19:34.757Z,99688.06
2023-01-15T05:22:04.196Z,99708.28
2023-01-15T05:24:32.227Z,99717.28
2023-01-15T05:27:00.594Z,99693.13
2023-01-15T05:29:28.596Z,99713.03
2023-01-15T05:31:56.488Z,99681.56
2023-01-15T05:34:24.470Z,99686.31
2023-01-15T05:36:52.410Z,99699.81
2023-01-15T05:39:21.855Z,99689.22
2023-01-15T05:41:53.258Z,99685.78
2023-01-15T05:44:23.769Z,99681.44
2023-01-15T05:46:52.771Z,99723.94
2023-01-15T05:49:22.679Z,99699.25
2023-01-15T05:51:51.146Z,99664.97
2023-01-15T05:54:23.568Z,99647.28
2023-01-15T05:56:52.216Z,99681.84
2023-01-15T05:59:22.779Z,99658.50
2023-01-15T06:01:51.127Z,99693.50
2023-01-15T06:04:21.270Z,99671.13
2023-01-15T06:06:50.470Z,99706.47
2023-01-15T06:09:18.476Z,99691.84
2023-01-15T06:11:48.340Z,99720.13
2023-01-15T06:14:17.081Z,99692.22
2023-01-15T06:16:46.663Z,99680.00
2023-01-15T06:19:15.078Z,99660.03
2023-01-15T06:21:43.169Z,99663.91
2023-01-15T06:24:11.371Z,99667.28
2023-01-15T06:26:39.800Z,99691.84
2023-01-15T06:29:09.307Z,99720.72
2023-01-15T06:31:37.355Z,99691.03
2023-01-15T06:34:05.444Z,99668.13
2023-01-15T06:36:33.411Z,99685.69
2023-01-15T06:39:01.265Z,99685.00
2023-01-15T06:41:46.449Z,99699.25
2023-01-15T06:44:34.931Z,99677.72
2023-01-15T06:47:23.596Z,99678.28
2023-01-15T06:49:54.487Z,99674.66
2023-01-15T06:52:22.910Z,99684.81
2023-01-15T06:54:51.040Z,99681.53
2023-01-15T06:57:19.997Z,99672.09
2023-01-15T06:59:49.638Z,99635.84
2023-01-15T07:02:18.566Z,99660.44
2023-01-15T07:04:47.166Z,99691.22
2023-01-15T07:07:16.478Z,99654.38
2023-01-15T07:09:44.338Z,99648.59
2023-01-15T07:12:12.368Z,99646.50
2023-01-15T07:14:40.654Z,99639.72
2023-01-15T07:17:10.201Z,99633.81
2023-01-15T07:19:38.207Z,99631.06
2023-01-15T07:22:06.620Z,99625.25
2023-01-15T07:24:34.876Z,99624.28
2023-01-15T07:27:02.890Z,99640.84
2023-01-15T07:29:31.602Z,99632.44
2023-01-15T07:32:00.001Z,99626.97
2023-01-15T07:34:29.440Z,99643.94
2023-01-15T07:36:57.715Z,99640.16
2023-01-15T07:39:25.590Z,99636.50
2023-01-15T07:42:10.721Z,99650.78
2023-01-15T07:44:55.828Z,99650.50
2023-01-15T07:47:42.964Z,99660.56
2023-01-15T07:50:15.955Z,99644.59
2023-01-15T07:52:43.987Z,99643.81
2023-01-15T07:55:13.514Z,99635.94
2023-01-15T07:57:42.377Z,99706.63
2023-01-15T08:00:13.969Z,99652.16
2023-01-15T08:02:42.652Z,99651.84
2023-01-15T08:05:13.022Z,99661.00
2023-01-15T08:07:41.987Z,99646.00
2023-01-15T08:10:12.562Z,99649.09
2023-01-15T08:12:58.308Z,99659.91
2023-01-15T08:15:26.976Z,99642.94
2023-01-15T08:17:55.266Z,99668.31
2023-01-15T08:20:27.001Z,99627.28
2023-01-15T08:22:54.998Z,99622.16
2023-01-15T08:25:24.883Z,99636.06
2023-01-15T08:27:53.558Z,99624.63
2023-01-15T08:30:24.324Z,99637.00
2023-01-15T08:32:52.352Z,99614.63
2023-01-15T08:35:20.324Z,99598.91
2023-01-15T08:37:49.636Z,99622.31
2023-01-15T08:40:18.213Z,99623.03
2023-01-15T08:42:46.299Z,99605.00
2023-01-15T08:45:14.871Z,99610.59
2023-01-15T08:47:43.041Z,99628.44
2023-01-15T08:50:12.786Z,99607.03
2023-01-15T08:52:40.929Z,99601.25
2023-01-15T08:55:10.772Z,99561.16
2023-01-15T08:57:39.003Z,99592.84
2023-01-15T09:00:09.379Z,99603.94
2023-01-15T09:02:37.520Z,99653.41
2023-01-15T09:05:06.260Z,99656.72
2023-01-15T09:07:35.464Z,99640.22
2023-01-15T09:10:04.424Z,99633.22
2023-01-15T09:12:33.806Z,99618.97
2023-01-15T09:15:03.275Z,99614.34
2023-01-15T09:17:32.773Z,99617.56
2023-01-15T09:20:01.255Z,99613.44
2023-01-15T09:22:31.262Z,99645.50
2023-01-15T09:24:59.470Z,99653.91
2023-01-15T09:27:27.483Z,99650.09
2023-01-15T09:29:57.719Z,99649.69
2023-01-15T09:32:25.993Z,99651.41
2023-01-15T09:34:54.054Z,99674.38
2023-01-15T09:37:22.171Z,99672.34
2023-01-15T09:39:50.197Z,99664.03
2023-01-15T09:42:38.504Z,99658.38
2023-01-15T09:45:22.013Z,99648.13
2023-01-15T09:48:06.042Z,99644.06
2023-01-15T09:50:45.096Z,99617.84
2023-01-15T09:53:26.949Z,99623.88
2023-01-15T09:55:56.219Z,99611.00
2023-01-15T09:58:36.200Z,99608.41
2023-01-15T10:01:07.594Z,99609.41
2023-01-15T10:03:43.038Z,99602.84
2023-01-15T10:06:16.521Z,99616.31
2023-01-15T10:08:46.784Z,99628.34
2023-01-15T10:12:02.498Z,99618.03
2023-01-15T10:14:39.556Z,99615.22
2023-01-15T10:17:20.755Z,99612.31
2023-01-15T10:19:48.900Z,99629.38
2023-01-15T10:22:29.187Z,99626.16
2023-01-15T10:24:58.886Z,99631.53
2023-01-15T10:27:30.203Z,99628.34
2023-01-15T10:30:06.573Z,99629.47
2023-01-15T10:33:01.168Z,99631.56
2023-01-15T10:35:42.003Z,99629.34
2023-01-15T10:38:17.738Z,99624.31
2023-01-15T10:41:15.558Z,99630.75
2023-01-15T10:43:51.673Z,99633.13
2023-01-15T10:46:21.833Z,99631.47
2023-01-15T10:48:55.141Z,99650.38
2023-01-15T10:51:25.297Z,99656.69
2023-01-15T10:54:00.341Z,99641.09
2023-01-15T10:56:34.296Z,99639.13
2023-01-15T10:59:12.256Z,99646.84
2023-01-15T11:01:41.730Z,99646.44
2023-01-15T11:04:13.954Z,99639.09
2023-01-15T11:06:42.934Z,99656.50
2023-01-15T11:09:22.060Z,99659.88
2023-01-15T11:12:14.569Z,99665.88
2023-01-15T11:15:01.990Z,99666.16
2023-01-15T11:17:51.179Z,99675.16
2023-01-15T11:20:29.288Z,99681.31
2023-01-15T11:22:58.708Z,99689.47
2023-01-15T11:25:29.746Z,99691.00
2023-01-15T11:27:59.930Z,99687.88
2023-01-15T11:30:30.905Z,99690.13
2023-01-15T11:33:04.352Z,99692.38
2023-01-15T11:35:35.561Z,99689.97
2023-01-15T11:38:05.466Z,99673.53
2023-01-15T11:40:33.707Z,99707.75
2023-01-15T11:43:19.175Z,99682.06
2023-01-15T11:46:08.515Z,99719.72
2023-01-15T11:49:02.403Z,99694.88
2023-01-15T11:51:33.731Z,99699.94
2023-01-15T11:54:05.742Z,99682.53
2023-01-15T11:56:37.007Z,99669.50
2023-01-15T11:59:11.391Z,99685.91
2023-01-15T12:01:47.239Z,99688.56
2023-01-15T12:04:32.332Z,99683.66
2023-01-15T12:07:03.369Z,99679.00
2023-01-15T12:09:45.249Z,99688.13
2023-01-15T12:12:25.003Z,99685.56
2023-01-15T12:15:10.916Z,99700.31
2023-01-15T12:18:01.316Z,99677.25
2023-01-15T12:20:37.427Z,99695.72
2023-01-15T12:23:38.647Z,99704.41
2023-01-15T12:26:19.929Z,99697.19
2023-01-15T12:28:59.143Z,99701.88
2023-01-15T12:31:33.536Z,99705.16
2023-01-15T12:34:09.075Z,99719.84
2023-01-15T12:36:44.563Z,99729.06
2023-01-15T12:39:21.392Z,99720.47
2023-01-15T12:42:26.099Z,99704.81
2023-01-15T12:45:04.899Z,99694.50
2023-01-15T12:47:39.987Z,99702.44
2023-01-15T12:50:23.685Z,99687.63
2023-01-15T12:52:59.119Z,99707.38
2023-01-15T12:55:32.766Z,99682.56
2023-01-15T12:58:06.270Z,99675.78
2023-01-15T13:00:39.052Z,99676.47
2023-01-15T13:03:18.194Z,99672.03
2023-01-15T13:05:50.302Z,99675.72
2023-01-15T13:08:25.390Z,99658.66
2023-01-15T13:10:54.841Z,99672.88
2023-01-15T13:13:24.722Z,99665.69
2023-01-15T13:16:10.682Z,99668.16
2023-01-15T13:18:48.152Z,99680.97
2023-01-15T13:21:18.000Z,99661.94
2023-01-15T13:24:15.814Z,99664.34
2023-01-15T13:27:07.554Z,99671.69
2023-01-15T13:29:48.015Z,99671.47
2023-01-15T13:32:20.330Z,99670.88
2023-01-15T13:34:55.048Z,99673.31
2023-01-15T13:37:27.016Z,99686.50
2023-01-15T13:40:00.044Z,99689.56
2023-01-15T13:42:37.945Z,99695.53
2023-01-15T13:45:27.824Z,99670.81
2023-01-15T13:47:59.230Z,99691.38
2023-01-15T13:50:32.087Z,99663.81
2023-01-15T13:53:06.839Z,99679.44
2023-01-15T13:55:36.963Z,99684.78
2023-01-15T13:58:18.647Z,99688.28
2023-01-15T14:00:47.359Z,99675.84
2023-01-15T14:03:27.893Z,99681.66
2023-01-15T14:05:56.962Z,99670.81
2023-01-15T14:08:28.792Z,99668.06
2023-01-15T14:10:58.288Z,99669.59
2023-01-15T14:13:52.928Z,99654.53
2023-01-15T14:16:35.502Z,99644.63
2023-01-15T14:19:44.318Z,99655.63
2023-01-15T14:22:37.114Z,99646.63
2023-01-15T14:25:27.365Z,99666.53
2023-01-15T14:28:06.125Z,99666.94
2023-01-15T14:30:56.944Z,99653.66
2023-01-15T14:33:33.496Z,99658.22
2023-01-15T14:36:12.445Z,99648.91
2023-01-15T14:38:49.381Z,99697.56
2023-01-15T14:41:18.057Z,99636.97
2023-01-15T14:43:49.662Z,99651.66
2023-01-15T14:46:28.317Z,99632.59
2023-01-15T14:48:56.667Z,99631.66
2023-01-15T14:51:28.798Z,99614.63
2023-01-15T14:53:59.887Z,99610.97
2023-01-15T14:56:33.196Z,99619.09
2023-01-15T14:59:05.910Z,99613.78
2023-01-15T15:01:44.426Z,99585.38
2023-01-15T15:04:29.708Z,99584.31
2023-01-15T15:07:00.005Z,99587.97
2023-01-15T15:09:36.421Z,99566.94
2023-01-15T15:12:21.673Z,99580.31
2023-01-15T15:14:59.874Z,99565.44
2023-01-15T15:17:38.569Z,99574.31
2023-01-15T15:20:23.368Z,99569.66
2023-01-15T15:22:56.694Z,99569.31
2023-01-15T15:25:28.318Z,99558.63
2023-01-15T15:28:04.555Z,99577.22
2023-01-15T15:30:35.693Z,99579.19
2023-01-15T15:33:07.704Z,99589.50
2023-01-15T15:35:36.092Z,99569.03
2023-01-15T15:38:06.789Z,99554.94
2023-01-15T15:40:37.144Z,99543.09
2023-01-15T15:43:31.158Z,99537.53
2023-01-15T15:46:16.815Z,99537.88
2023-01-15T15:48:53.357Z,99526.84
2023-01-15T15:51:33.403Z,99513.47
2023-01-15T15:54:06.833Z,99517.50
2023-01-15T15:56:36.147Z,99506.81
2023-01-15T15:59:05.608Z,99505.50
2023-01-15T16:01:38.896Z,99487.94
2023-01-15T16:04:08.573Z,99511.69
2023-01-15T16:06:37.292Z,99505.13
2023-01-15T16:09:10.888Z,99484.88
2023-01-15T16:11:40.402Z,99482.00
2023-01-15T16:14:15.867Z,99469.25
2023-01-15T16:16:45.067Z,99468.22
2023-01-15T16:19:19.981Z,99457.81
2023-01-15T16:21:48.833Z,99467.47
2023-01-15T16:24:27.754Z,99444.72
2023-01-15T16:27:00.037Z,99444.38
2023-01-15T16:29:31.119Z,99443.84
2023-01-15T16:32:00.006Z,99440.50
2023-01-15T16:34:31.962Z,99430.78
2023-01-15T16:37:01.045Z,99425.94
2023-01-15T16:39:34.752Z,99406.69
2023-01-15T16:42:03.153Z,99418.53
2023-01-15T16:44:43.014Z,99413.19
2023-01-15T16:47:23.067Z,99417.56
2023-01-15T16:49:52.679Z,99412.88
2023-01-15T16:52:48.678Z,99394.53
2023-01-15T16:55:36.128Z,99379.63
2023-01-15T16:58:20.920Z,99378.66
2023-01-15T17:00:51.803Z,99376.88
2023-01-15T17:03:21.625Z,99356.25
2023-01-15T17:05:53.234Z,99361.69
2023-01-15T17:08:23.510Z,99356.03
2023-01-15T17:10:56.689Z,99351.34
2023-01-15T17:13:33.086Z,99360.59
2023-01-15T17:16:06.980Z,99349.28
2023-01-15T17:18:35.726Z,99331.53
2023-01-15T17:21:05.532Z,99331.47
2023-01-15T17:23:37.150Z,99328.53
2023-01-15T17:26:06.907Z,99311.31
2023-01-15T17:28:35.381Z,99306.44
2023-01-15T17:31:04.314Z,99302.44
2023-01-15T17:33:32.264Z,99290.06
2023-01-15T17:36:01.423Z,99292.22
2023-01-15T17:38:30.853Z,99287.00
2023-01-15T17:41:03.628Z,99280.69
2023-01-15T17:43:31.651Z,99278.03
2023-01-15T17:46:01.070Z,99264.72
2023-01-15T17:48:28.970Z,99255.75
2023-01-15T17:50:57.055Z,99241.28
2023-01-15T17:53:25.008Z,99239.44
2023-01-15T17:56:11.907Z,99233.66
2023-01-15T17:58:57.072Z,99222.63
2023-01-15T18:01:45.789Z,99220.94
2023-01-15T18:04:36.693Z,99216.63
2023-01-15T18:07:05.129Z,99220.78
2023-01-15T18:09:34.661Z,99217.53
2023-01-15T18:12:04.655Z,99209.59
2023-01-15T18:14:32.699Z,99211.69
2023-01-15T18:17:00.631Z,99202.22
2023-01-15T18:19:28.596Z,99190.09
2023-01-15T18:21:56.560Z,99186.13
2023-01-15T18:24:24.499Z,99190.00
2023-01-15T18:26:53.119Z,99203.00
2023-01-15T18:29:23.217Z,99186.66
2023-01-15T18:31:51.151Z,99174.09
2023-01-15T18:34:19.085Z,99157.38
2023-01-15T18:36:47.119Z,99149.00
2023-01-15T18:39:15.388Z,99140.47
2023-01-15T18:42:00.686Z,99137.13
2023-01-15T18:44:47.503Z,99118.94
2023-01-15T18:47:17.664Z,99101.72
2023-01-15T18:49:47.042Z,99096.72
2023-01-15T18:52:35.041Z,99086.53
2023-01-15T18:55:03.431Z,99081.66
2023-01-15T18:57:34.184Z,99073.13
2023-01-15T19:00:03.671Z,99064.75
2023-01-15T19:02:31.714Z,99047.41
2023-01-15T19:05:01.172Z,99041.72
2023-01-15T19:07:29.038Z,99042.88
2023-01-15T19:09:57.139Z,99035.03
2023-01-15T19:12:25.441Z,99029.69
2023-01-15T19:15:10.562Z,99012.06
2023-01-15T19:17:57.416Z,98994.72
2023-01-15T19:20:25.496Z,98982.41
2023-01-15T19:23:05.770Z,98976.22
2023-01-15T19:25:38.246Z,98969.06
2023-01-15T19:28:06.826Z,98957.28
2023-01-15T19:30:36.149Z,98950.28
2023-01-15T19:33:06.033Z,98945.13
2023-01-15T19:35:35.303Z,98933.47
2023-01-15T19:38:03.563Z,98922.81
2023-01-15T19:40:36.433Z,98903.34
2023-01-15T19:43:21.890Z,98902.50
2023-01-15T19:46:12.531Z,98883.22
2023-01-15T19:48:59.791Z,98870.56
2023-01-15T19:51:48.929Z,98854.75
2023-01-15T19:54:36.902Z,98842.28
2023-01-15T19:57:04.889Z,98836.94
2023-01-15T19:59:33.069Z,98827.13
2023-01-15T20:02:03.645Z,98822.47
2023-01-15T20:04:32.977Z,98818.00
2023-01-15T20:07:00.817Z,98788.53
2023-01-15T20:09:28.732Z,98779.72
2023-01-15T20:12:14.028Z,98778.56
2023-01-15T20:14:42.107Z,98763.41
2023-01-15T20:17:11.516Z,98756.13
2023-01-15T20:19:40.889Z,98745.47
2023-01-15T20:22:08.923Z,98732.81
2023-01-15T20:24:42.000Z,98729.00
2023-01-15T20:27:10.109Z,98717.19
2023-01-15T20:29:38.098Z,98700.88
2023-01-15T20:32:08.035Z,98685.91
2023-01-15T20:34:38.616Z,98681.25
2023-01-15T20:37:08.591Z,98669.44
2023-01-15T20:39:36.558Z,98652.44
2023-01-15T20:42:21.971Z,98653.94
2023-01-15T20:44:55.765Z,98639.66
2023-01-15T20:47:42.599Z,98631.31
2023-01-15T20:50:15.599Z,98632.00
2023-01-15T20:52:49.130Z,98620.16
2023-01-15T20:55:21.312Z,98608.19
2023-01-15T20:57:49.336Z,98594.03
2023-01-15T21:00:19.736Z,98583.03
2023-01-15T21:02:48.249Z,98570.19
2023-01-15T21:05:16.529Z,98557.88
2023-01-15T21:07:44.414Z,98561.06
2023-01-15T21:10:15.034Z,98554.72
2023-01-15T21:12:43.281Z,98536.06
2023-01-15T21:15:12.558Z,98523.56
2023-01-15T21:17:41.131Z,98523.25
2023-01-15T21:20:11.431Z,98505.75
2023-01-15T21:22:39.904Z,98500.28
2023-01-15T21:25:10.505Z,98494.75
2023-01-15T21:27:40.491Z,98487.41
2023-01-15T21:30:10.372Z,98480.25
2023-01-15T21:32:38.496Z,98477.44
2023-01-15T21:35:07.053Z,98464.94
2023-01-15T21:37:35.134Z,98458.59
2023-01-15T21:40:03.249Z,98448.78
2023-01-15T21:42:48.289Z,98441.78
2023-01-15T21:45:17.785Z,98442.13
2023-01-15T21:47:45.975Z,98425.13
2023-01-15T21:50:13.880Z,98424.78
2023-01-15T21:52:41.849Z,98418.44
2023-01-15T21:55:10.741Z,98414.81
2023-01-15T21:57:38.710Z,98404.31
2023-01-15T22:00:07.954Z,98395.16
2023-01-15T22:02:37.402Z,98394.47
2023-01-15T22:05:08.113Z,98385.50
2023-01-15T22:07:36.302Z,98377.50
2023-01-15T22:10:04.832Z,98373.81
2023-01-15T22:12:37.400Z,98364.81
2023-01-15T22:15:06.295Z,98360.97
2023-01-15T22:17:34.225Z,98349.13
2023-01-15T22:20:06.254Z,98352.28
2023-01-15T22:22:36.459Z,98344.63
2023-01-15T22:25:07.658Z,98340.81
2023-01-15T22:27:40.577Z,98330.97
2023-01-15T22:30:10.877Z,98328.94
2023-01-15T22:32:38.800Z,98327.47
2023-01-15T22:35:09.983Z,98328.47
2023-01-15T22:37:37.965Z,98308.34
2023-01-15T22:40:07.317Z,98302.00
2023-01-15T22:42:35.361Z,98309.16
2023-01-15T22:45:04.236Z,98296.03
2023-01-15T22:47:32.161Z,98295.19
2023-01-15T22:50:00.203Z,98286.91
2023-01-15T22:52:29.809Z,98278.56
2023-01-15T22:54:57.973Z,98273.94
2023-01-15T22:57:26.071Z,98267.31
2023-01-15T22:59:53.960Z,98272.00
2023-01-15T23:02:42.641Z,98266.38
2023-01-15T23:05:12.092Z,98260.38
2023-01-15T23:07:41.748Z,98258.06
2023-01-15T23:10:13.196Z,98252.06
2023-01-15T23:12:42.279Z,98249.09
2023-01-15T23:15:14.389Z,98234.84
2023-01-15T23:17:42.405Z,98237.38
2023-01-15T23:20:13.086Z,98236.22
2023-01-15T23:22:42.552Z,98236.59
2023-01-15T23:25:10.529Z,98235.75
2023-01-15T23:27:38.599Z,98233.75
2023-01-15T23:30:07.761Z,98221.25
2023-01-15T23:32:35.674Z,98220.25
2023-01-15T23:35:03.601Z,98216.59
2023-01-15T23:37:31.781Z,98221.56
2023-01-15T23:40:01.149Z,98210.56
2023-01-15T23:42:46.485Z,98211.22
2023-01-15T23:45:31.572Z,98204.56
2023-01-15T23:47:59.603Z,98201.09
2023-01-15T23:50:27.576Z,98200.75
2023-01-15T23:52:55.453Z,98196.06
2023-01-15T23:55:25.052Z,98193.25
2023-01-15T23:57:53.001Z,98186.91
